sensor_id;sensor_type;location;lat;lon;timestamp;temperature;humidity
22716;DHT22;11525;51.152;4.456;2023-06-24T00:02:07;19.00;99.90
22716;DHT22;11525;51.152;4.456;2023-06-24T00:04:32;19.00;99.90
22716;DHT22;11525;51.152;4.456;2023-06-24T00:06:59;19.00;99.90
22716;DHT22;11525;51.152;4.456;2023-06-24T00:09:29;19.00;99.90
22716;DHT22;11525;51.152;4.456;2023-06-24T00:11:56;19.00;99.90
22716;DHT22;11525;51.152;4.456;2023-06-24T00:14:22;19.00;99.90
22716;DHT22;11525;51.152;4.456;2023-06-24T00:16:50;18.80;99.90
22716;DHT22;11525;51.152;4.456;2023-06-24T00:19:20;18.80;99.90
22716;DHT22;11525;51.152;4.456;2023-06-24T00:21:50;18.70;99.90
22716;DHT22;11525;51.152;4.456;2023-06-24T00:24:20;18.70;99.90
22716;DHT22;11525;51.152;4.456;2023-06-24T00:26:47;18.50;99.90
22716;DHT22;11525;51.152;4.456;2023-06-24T00:29:13;18.50;99.90
22716;DHT22;11525;51.152;4.456;2023-06-24T00:31:38;18.50;99.90
22716;DHT22;11525;51.152;4.456;2023-06-24T00:34:04;18.30;99.90
22716;DHT22;11525;51.152;4.456;2023-06-24T00:36:30;18.30;99.90
22716;DHT22;11525;51.152;4.456;2023-06-24T00:38:58;18.40;99.90
22716;DHT22;11525;51.152;4.456;2023-06-24T00:41:26;18.40;99.90
22716;DHT22;11525;51.152;4.456;2023-06-24T00:43:52;18.30;99.90
22716;DHT22;11525;51.152;4.456;2023-06-24T00:46:18;18.40;99.90
22716;DHT22;11525;51.152;4.456;2023-06-24T00:48:45;18.40;99.90
22716;DHT22;11525;51.152;4.456;2023-06-24T00:51:11;18.40;99.90
22716;DHT22;11525;51.152;4.456;2023-06-24T00:53:36;18.40;99.90
22716;DHT22;11525;51.152;4.456;2023-06-24T00:56:02;18.40;99.90
22716;DHT22;11525;51.152;4.456;2023-06-24T00:58:31;18.40;99.90
22716;DHT22;11525;51.152;4.456;2023-06-24T01:00:57;18.30;99.90
22716;DHT22;11525;51.152;4.456;2023-06-24T01:03:24;18.30;99.90
22716;DHT22;11525;51.152;4.456;2023-06-24T01:05:51;18.10;99.90
22716;DHT22;11525;51.152;4.456;2023-06-24T01:08:17;18.20;99.90
22716;DHT22;11525;51.152;4.456;2023-06-24T01:10:45;18.20;99.90
22716;DHT22;11525;51.152;4.456;2023-06-24T01:13:10;18.10;99.90
22716;DHT22;11525;51.152;4.456;2023-06-24T01:15:36;18.10;99.90
22716;DHT22;11525;51.152;4.456;2023-06-24T01:21:10;18.10;99.90
22716;DHT22;11525;51.152;4.456;2023-06-24T01:34:40;17.90;99.90
22716;DHT22;11525;51.152;4.456;2023-06-24T01:37:17;18.00;99.90
22716;DHT22;11525;51.152;4.456;2023-06-24T01:39:52;17.90;99.90
22716;DHT22;11525;51.152;4.456;2023-06-24T01:42:21;17.90;99.90
22716;DHT22;11525;51.152;4.456;2023-06-24T01:44:49;17.90;99.90
22716;DHT22;11525;51.152;4.456;2023-06-24T01:47:23;17.90;99.90
22716;DHT22;11525;51.152;4.456;2023-06-24T01:49:53;17.80;99.90
22716;DHT22;11525;51.152;4.456;2023-06-24T01:52:21;17.80;99.90
22716;DHT22;11525;51.152;4.456;2023-06-24T01:54:49;17.80;99.90
22716;DHT22;11525;51.152;4.456;2023-06-24T01:57:16;17.70;99.90
22716;DHT22;11525;51.152;4.456;2023-06-24T01:59:45;17.70;99.90
22716;DHT22;11525;51.152;4.456;2023-06-24T02:02:12;17.70;99.90
22716;DHT22;11525;51.152;4.456;2023-06-24T02:04:39;17.70;99.90
22716;DHT22;11525;51.152;4.456;2023-06-24T02:07:06;17.70;99.90
22716;DHT22;11525;51.152;4.456;2023-06-24T02:09:33;17.60;99.90
22716;DHT22;11525;51.152;4.456;2023-06-24T02:12:01;17.70;99.90
22716;DHT22;11525;51.152;4.456;2023-06-24T02:14:29;17.60;99.90
22716;DHT22;11525;51.152;4.456;2023-06-24T02:16:57;17.60;99.90
22716;DHT22;11525;51.152;4.456;2023-06-24T02:19:27;17.60;99.90
22716;DHT22;11525;51.152;4.456;2023-06-24T02:21:56;17.60;99.90
22716;DHT22;11525;51.152;4.456;2023-06-24T02:24:22;17.50;99.90
22716;DHT22;11525;51.152;4.456;2023-06-24T02:26:49;17.50;99.90
22716;DHT22;11525;51.152;4.456;2023-06-24T02:29:17;17.40;99.90
22716;DHT22;11525;51.152;4.456;2023-06-24T02:31:43;17.40;99.90
22716;DHT22;11525;51.152;4.456;2023-06-24T02:34:09;17.30;99.90
22716;DHT22;11525;51.152;4.456;2023-06-24T02:36:34;17.30;99.90
22716;DHT22;11525;51.152;4.456;2023-06-24T02:39:00;17.30;99.90
22716;DHT22;11525;51.152;4.456;2023-06-24T02:41:26;17.20;99.90
22716;DHT22;11525;51.152;4.456;2023-06-24T02:43:52;17.20;99.90
22716;DHT22;11525;51.152;4.456;2023-06-24T02:46:19;17.20;99.90
22716;DHT22;11525;51.152;4.456;2023-06-24T02:48:45;17.20;99.90
22716;DHT22;11525;51.152;4.456;2023-06-24T02:51:12;17.10;99.90
22716;DHT22;11525;51.152;4.456;2023-06-24T02:53:38;17.10;99.90
22716;DHT22;11525;51.152;4.456;2023-06-24T02:56:05;17.00;99.90
22716;DHT22;11525;51.152;4.456;2023-06-24T02:58:32;17.00;99.90
22716;DHT22;11525;51.152;4.456;2023-06-24T03:01:01;17.00;99.90
22716;DHT22;11525;51.152;4.456;2023-06-24T03:03:28;17.00;99.90
22716;DHT22;11525;51.152;4.456;2023-06-24T03:05:55;17.00;99.90
22716;DHT22;11525;51.152;4.456;2023-06-24T03:08:24;17.00;99.90
22716;DHT22;11525;51.152;4.456;2023-06-24T03:10:54;16.90;99.90
22716;DHT22;11525;51.152;4.456;2023-06-24T03:13:21;17.00;99.90
22716;DHT22;11525;51.152;4.456;2023-06-24T03:15:47;17.00;99.90
22716;DHT22;11525;51.152;4.456;2023-06-24T03:18:12;17.00;99.90
22716;DHT22;11525;51.152;4.456;2023-06-24T03:20:38;17.00;99.90
22716;DHT22;11525;51.152;4.456;2023-06-24T03:23:07;17.00;99.90
22716;DHT22;11525;51.152;4.456;2023-06-24T03:25:36;16.90;99.90
22716;DHT22;11525;51.152;4.456;2023-06-24T03:28:02;16.90;99.90
22716;DHT22;11525;51.152;4.456;2023-06-24T03:30:33;16.80;99.90
22716;DHT22;11525;51.152;4.456;2023-06-24T03:32:58;16.80;99.90
22716;DHT22;11525;51.152;4.456;2023-06-24T03:35:24;16.70;99.90
22716;DHT22;11525;51.152;4.456;2023-06-24T03:37:50;16.70;99.90
22716;DHT22;11525;51.152;4.456;2023-06-24T03:40:15;16.70;99.90
22716;DHT22;11525;51.152;4.456;2023-06-24T03:42:41;16.80;99.90
22716;DHT22;11525;51.152;4.456;2023-06-24T03:45:07;16.70;99.90
22716;DHT22;11525;51.152;4.456;2023-06-24T03:47:33;16.80;99.90
22716;DHT22;11525;51.152;4.456;2023-06-24T03:49:58;16.80;99.90
22716;DHT22;11525;51.152;4.456;2023-06-24T03:52:24;16.70;99.90
22716;DHT22;11525;51.152;4.456;2023-06-24T03:54:50;16.70;99.90
22716;DHT22;11525;51.152;4.456;2023-06-24T03:57:16;16.70;99.90
22716;DHT22;11525;51.152;4.456;2023-06-24T03:59:42;16.70;99.90
22716;DHT22;11525;51.152;4.456;2023-06-24T04:02:07;16.80;99.90
22716;DHT22;11525;51.152;4.456;2023-06-24T04:04:36;16.80;99.90
22716;DHT22;11525;51.152;4.456;2023-06-24T04:07:02;16.80;99.90
22716;DHT22;11525;51.152;4.456;2023-06-24T04:09:29;16.80;99.90
22716;DHT22;11525;51.152;4.456;2023-06-24T04:11:55;16.90;99.90
22716;DHT22;11525;51.152;4.456;2023-06-24T04:14:20;16.90;99.90
22716;DHT22;11525;51.152;4.456;2023-06-24T04:16:46;16.90;99.90
22716;DHT22;11525;51.152;4.456;2023-06-24T04:19:12;17.00;99.90
22716;DHT22;11525;51.152;4.456;2023-06-24T04:21:37;17.10;99.90
22716;DHT22;11525;51.152;4.456;2023-06-24T04:24:04;17.10;99.90
22716;DHT22;11525;51.152;4.456;2023-06-24T04:26:30;17.10;99.90
22716;DHT22;11525;51.152;4.456;2023-06-24T04:28:56;17.20;99.90
22716;DHT22;11525;51.152;4.456;2023-06-24T04:31:21;17.20;99.90
22716;DHT22;11525;51.152;4.456;2023-06-24T04:33:47;17.30;99.90
22716;DHT22;11525;51.152;4.456;2023-06-24T04:36:12;17.40;99.90
22716;DHT22;11525;51.152;4.456;2023-06-24T04:38:38;17.50;99.90
22716;DHT22;11525;51.152;4.456;2023-06-24T04:41:04;17.80;99.90
22716;DHT22;11525;51.152;4.456;2023-06-24T04:43:29;17.90;99.90
22716;DHT22;11525;51.152;4.456;2023-06-24T04:45:55;18.20;99.90
22716;DHT22;11525;51.152;4.456;2023-06-24T04:48:23;18.30;99.90
22716;DHT22;11525;51.152;4.456;2023-06-24T04:50:49;18.40;99.90
22716;DHT22;11525;51.152;4.456;2023-06-24T04:53:15;18.50;99.90
22716;DHT22;11525;51.152;4.456;2023-06-24T04:55:40;18.70;99.90
22716;DHT22;11525;51.152;4.456;2023-06-24T04:58:06;18.80;99.90
22716;DHT22;11525;51.152;4.456;2023-06-24T05:00:32;18.80;99.90
22716;DHT22;11525;51.152;4.456;2023-06-24T05:02:57;18.90;99.90
22716;DHT22;11525;51.152;4.456;2023-06-24T05:05:23;19.00;99.90
22716;DHT22;11525;51.152;4.456;2023-06-24T05:07:49;19.10;99.90
22716;DHT22;11525;51.152;4.456;2023-06-24T05:10:15;19.10;99.90
22716;DHT22;11525;51.152;4.456;2023-06-24T05:12:40;19.10;99.90
22716;DHT22;11525;51.152;4.456;2023-06-24T05:15:06;19.10;99.90
22716;DHT22;11525;51.152;4.456;2023-06-24T05:17:33;19.20;99.90
22716;DHT22;11525;51.152;4.456;2023-06-24T05:19:58;19.20;99.90
22716;DHT22;11525;51.152;4.456;2023-06-24T05:22:24;19.10;99.90
22716;DHT22;11525;51.152;4.456;2023-06-24T05:24:50;19.10;99.90
22716;DHT22;11525;51.152;4.456;2023-06-24T05:27:16;19.00;99.90
22716;DHT22;11525;51.152;4.456;2023-06-24T05:29:43;19.10;99.90
22716;DHT22;11525;51.152;4.456;2023-06-24T05:32:08;19.20;99.90
22716;DHT22;11525;51.152;4.456;2023-06-24T05:34:34;19.30;99.90
22716;DHT22;11525;51.152;4.456;2023-06-24T05:37:00;19.20;99.90
22716;DHT22;11525;51.152;4.456;2023-06-24T05:39:26;19.20;99.90
22716;DHT22;11525;51.152;4.456;2023-06-24T05:41:51;19.20;99.90
22716;DHT22;11525;51.152;4.456;2023-06-24T05:44:17;19.30;99.90
22716;DHT22;11525;51.152;4.456;2023-06-24T05:46:44;19.30;99.90
22716;DHT22;11525;51.152;4.456;2023-06-24T05:49:10;19.40;99.90
22716;DHT22;11525;51.152;4.456;2023-06-24T05:51:36;19.40;99.90
22716;DHT22;11525;51.152;4.456;2023-06-24T05:54:01;19.60;99.90
22716;DHT22;11525;51.152;4.456;2023-06-24T05:56:27;19.90;99.90
22716;DHT22;11525;51.152;4.456;2023-06-24T05:58:53;20.20;99.90
22716;DHT22;11525;51.152;4.456;2023-06-24T06:01:18;20.40;99.90
22716;DHT22;11525;51.152;4.456;2023-06-24T06:03:44;20.80;99.90
22716;DHT22;11525;51.152;4.456;2023-06-24T06:06:09;21.00;99.90
22716;DHT22;11525;51.152;4.456;2023-06-24T06:08:35;21.20;99.90
22716;DHT22;11525;51.152;4.456;2023-06-24T06:11:01;22.00;99.90
22716;DHT22;11525;51.152;4.456;2023-06-24T06:13:28;23.20;99.90
22716;DHT22;11525;51.152;4.456;2023-06-24T06:15:54;24.50;99.90
22716;DHT22;11525;51.152;4.456;2023-06-24T06:18:20;25.00;99.90
22716;DHT22;11525;51.152;4.456;2023-06-24T06:20:46;25.80;99.90
22716;DHT22;11525;51.152;4.456;2023-06-24T06:23:11;26.70;99.90
22716;DHT22;11525;51.152;4.456;2023-06-24T06:25:37;27.40;99.90
22716;DHT22;11525;51.152;4.456;2023-06-24T06:28:03;27.40;99.80
22716;DHT22;11525;51.152;4.456;2023-06-24T06:30:29;27.60;98.70
22716;DHT22;11525;51.152;4.456;2023-06-24T06:32:55;28.10;97.30
22716;DHT22;11525;51.152;4.456;2023-06-24T06:35:20;29.70;94.50
22716;DHT22;11525;51.152;4.456;2023-06-24T06:37:46;30.70;91.40
22716;DHT22;11525;51.152;4.456;2023-06-24T06:40:18;32.30;84.50
22716;DHT22;11525;51.152;4.456;2023-06-24T06:42:43;33.30;77.30
22716;DHT22;11525;51.152;4.456;2023-06-24T06:45:09;33.70;71.60
22716;DHT22;11525;51.152;4.456;2023-06-24T06:47:35;34.20;67.80
22716;DHT22;11525;51.152;4.456;2023-06-24T06:50:01;34.80;64.70
22716;DHT22;11525;51.152;4.456;2023-06-24T06:52:26;35.40;61.40
22716;DHT22;11525;51.152;4.456;2023-06-24T06:54:54;36.10;57.90
22716;DHT22;11525;51.152;4.456;2023-06-24T06:57:19;36.10;56.40
22716;DHT22;11525;51.152;4.456;2023-06-24T06:59:45;36.50;55.90
22716;DHT22;11525;51.152;4.456;2023-06-24T07:02:11;36.70;54.20
22716;DHT22;11525;51.152;4.456;2023-06-24T07:04:37;36.80;53.10
22716;DHT22;11525;51.152;4.456;2023-06-24T07:07:02;36.70;52.90
22716;DHT22;11525;51.152;4.456;2023-06-24T07:09:28;37.00;51.50
22716;DHT22;11525;51.152;4.456;2023-06-24T07:11:54;37.30;51.00
22716;DHT22;11525;51.152;4.456;2023-06-24T07:14:19;37.60;50.00
22716;DHT22;11525;51.152;4.456;2023-06-24T07:16:45;37.00;50.20
22716;DHT22;11525;51.152;4.456;2023-06-24T07:19:11;36.80;50.40
22716;DHT22;11525;51.152;4.456;2023-06-24T07:21:37;37.10;50.40
22716;DHT22;11525;51.152;4.456;2023-06-24T07:24:03;37.50;50.10
22716;DHT22;11525;51.152;4.456;2023-06-24T07:26:29;37.80;49.30
22716;DHT22;11525;51.152;4.456;2023-06-24T07:28:59;38.30;49.30
22716;DHT22;11525;51.152;4.456;2023-06-24T07:31:25;39.10;47.50
22716;DHT22;11525;51.152;4.456;2023-06-24T07:33:51;40.00;46.30
22716;DHT22;11525;51.152;4.456;2023-06-24T07:36:16;40.30;45.00
22716;DHT22;11525;51.152;4.456;2023-06-24T07:38:42;41.00;43.50
22716;DHT22;11525;51.152;4.456;2023-06-24T07:41:08;41.10;43.20
22716;DHT22;11525;51.152;4.456;2023-06-24T07:43:34;40.40;43.40
22716;DHT22;11525;51.152;4.456;2023-06-24T07:45:59;40.40;43.10
22716;DHT22;11525;51.152;4.456;2023-06-24T07:48:25;40.80;42.50
22716;DHT22;11525;51.152;4.456;2023-06-24T07:50:51;41.00;41.90
22716;DHT22;11525;51.152;4.456;2023-06-24T07:53:16;40.90;41.10
22716;DHT22;11525;51.152;4.456;2023-06-24T07:55:42;40.90;41.50
22716;DHT22;11525;51.152;4.456;2023-06-24T07:58:08;39.60;41.90
22716;DHT22;11525;51.152;4.456;2023-06-24T08:00:33;39.70;42.60
22716;DHT22;11525;51.152;4.456;2023-06-24T08:02:59;40.60;42.00
22716;DHT22;11525;51.152;4.456;2023-06-24T08:05:25;41.10;41.00
22716;DHT22;11525;51.152;4.456;2023-06-24T08:07:51;41.50;40.10
22716;DHT22;11525;51.152;4.456;2023-06-24T08:10:17;42.20;39.60
22716;DHT22;11525;51.152;4.456;2023-06-24T08:12:43;42.70;38.50
22716;DHT22;11525;51.152;4.456;2023-06-24T08:15:09;42.10;38.60
22716;DHT22;11525;51.152;4.456;2023-06-24T08:17:35;41.40;39.10
22716;DHT22;11525;51.152;4.456;2023-06-24T08:20:02;40.50;39.50
22716;DHT22;11525;51.152;4.456;2023-06-24T08:22:28;41.10;39.90
22716;DHT22;11525;51.152;4.456;2023-06-24T08:24:54;41.00;39.40
22716;DHT22;11525;51.152;4.456;2023-06-24T08:27:20;41.30;39.40
22716;DHT22;11525;51.152;4.456;2023-06-24T08:29:45;41.80;39.50
22716;DHT22;11525;51.152;4.456;2023-06-24T08:32:11;42.20;39.20
22716;DHT22;11525;51.152;4.456;2023-06-24T08:34:37;42.70;38.50
22716;DHT22;11525;51.152;4.456;2023-06-24T08:37:02;43.30;36.60
22716;DHT22;11525;51.152;4.456;2023-06-24T08:39:28;42.20;36.40
22716;DHT22;11525;51.152;4.456;2023-06-24T08:41:54;41.70;37.80
22716;DHT22;11525;51.152;4.456;2023-06-24T08:44:20;41.60;37.70
22716;DHT22;11525;51.152;4.456;2023-06-24T08:46:46;40.90;37.60
22716;DHT22;11525;51.152;4.456;2023-06-24T08:49:16;41.60;37.40
22716;DHT22;11525;51.152;4.456;2023-06-24T08:51:44;41.60;36.40
22716;DHT22;11525;51.152;4.456;2023-06-24T08:54:14;41.90;36.90
22716;DHT22;11525;51.152;4.456;2023-06-24T08:56:40;41.50;37.30
22716;DHT22;11525;51.152;4.456;2023-06-24T08:59:08;41.90;37.30
22716;DHT22;11525;51.152;4.456;2023-06-24T09:01:34;41.00;37.60
22716;DHT22;11525;51.152;4.456;2023-06-24T09:04:00;41.70;36.70
22716;DHT22;11525;51.152;4.456;2023-06-24T09:06:25;40.80;36.90
22716;DHT22;11525;51.152;4.456;2023-06-24T09:08:54;41.20;37.40
22716;DHT22;11525;51.152;4.456;2023-06-24T09:11:27;40.80;37.30
22716;DHT22;11525;51.152;4.456;2023-06-24T09:13:56;40.40;36.80
22716;DHT22;11525;51.152;4.456;2023-06-24T09:16:23;41.10;37.50
22716;DHT22;11525;51.152;4.456;2023-06-24T09:18:49;41.60;37.00
22716;DHT22;11525;51.152;4.456;2023-06-24T09:21:28;41.10;36.20
22716;DHT22;11525;51.152;4.456;2023-06-24T09:23:57;41.10;37.10
22716;DHT22;11525;51.152;4.456;2023-06-24T09:26:26;41.80;36.40
22716;DHT22;11525;51.152;4.456;2023-06-24T09:28:53;42.20;35.50
22716;DHT22;11525;51.152;4.456;2023-06-24T09:31:20;41.50;35.60
22716;DHT22;11525;51.152;4.456;2023-06-24T09:33:46;41.50;34.80
22716;DHT22;11525;51.152;4.456;2023-06-24T09:36:13;41.90;34.70
22716;DHT22;11525;51.152;4.456;2023-06-24T09:38:41;42.10;34.60
22716;DHT22;11525;51.152;4.456;2023-06-24T09:41:08;42.10;34.20
22716;DHT22;11525;51.152;4.456;2023-06-24T09:43:34;42.30;33.60
22716;DHT22;11525;51.152;4.456;2023-06-24T09:46:06;42.20;33.60
22716;DHT22;11525;51.152;4.456;2023-06-24T09:48:33;42.10;34.60
22716;DHT22;11525;51.152;4.456;2023-06-24T09:51:03;41.40;34.00
22716;DHT22;11525;51.152;4.456;2023-06-24T09:53:35;42.00;35.20
22716;DHT22;11525;51.152;4.456;2023-06-24T09:56:07;41.80;33.80
22716;DHT22;11525;51.152;4.456;2023-06-24T09:58:36;41.80;34.60
22716;DHT22;11525;51.152;4.456;2023-06-24T10:01:03;41.40;33.80
22716;DHT22;11525;51.152;4.456;2023-06-24T10:03:33;41.30;34.80
22716;DHT22;11525;51.152;4.456;2023-06-24T10:06:02;41.00;34.00
22716;DHT22;11525;51.152;4.456;2023-06-24T10:08:31;41.00;34.50
22716;DHT22;11525;51.152;4.456;2023-06-24T10:10:58;41.10;34.70
22716;DHT22;11525;51.152;4.456;2023-06-24T10:13:25;41.10;33.10
22716;DHT22;11525;51.152;4.456;2023-06-24T10:15:51;40.70;32.90
22716;DHT22;11525;51.152;4.456;2023-06-24T10:18:37;41.80;32.60
22716;DHT22;11525;51.152;4.456;2023-06-24T10:21:04;41.80;32.10
22716;DHT22;11525;51.152;4.456;2023-06-24T10:26:36;41.20;33.10
22716;DHT22;11525;51.152;4.456;2023-06-24T10:29:08;41.10;34.10
22716;DHT22;11525;51.152;4.456;2023-06-24T10:34:32;40.80;34.30
22716;DHT22;11525;51.152;4.456;2023-06-24T10:42:30;40.20;34.80
22716;DHT22;11525;51.152;4.456;2023-06-24T10:45:02;41.50;32.90
22716;DHT22;11525;51.152;4.456;2023-06-24T10:47:47;41.00;33.50
22716;DHT22;11525;51.152;4.456;2023-06-24T10:50:20;40.90;32.80
22716;DHT22;11525;51.152;4.456;2023-06-24T10:52:48;40.50;33.90
22716;DHT22;11525;51.152;4.456;2023-06-24T10:55:18;40.90;34.40
22716;DHT22;11525;51.152;4.456;2023-06-24T10:57:44;41.80;31.50
22716;DHT22;11525;51.152;4.456;2023-06-24T11:00:14;41.50;32.90
22716;DHT22;11525;51.152;4.456;2023-06-24T11:02:40;42.10;32.10
22716;DHT22;11525;51.152;4.456;2023-06-24T11:05:06;40.60;32.30
22716;DHT22;11525;51.152;4.456;2023-06-24T11:07:34;37.90;36.10
22716;DHT22;11525;51.152;4.456;2023-06-24T11:10:09;36.40;36.40
22716;DHT22;11525;51.152;4.456;2023-06-24T11:12:37;34.40;38.80
22716;DHT22;11525;51.152;4.456;2023-06-24T11:15:12;33.00;42.30
22716;DHT22;11525;51.152;4.456;2023-06-24T11:17:40;32.20;42.80
22716;DHT22;11525;51.152;4.456;2023-06-24T11:20:11;31.60;44.90
22716;DHT22;11525;51.152;4.456;2023-06-24T11:22:39;31.20;45.70
22716;DHT22;11525;51.152;4.456;2023-06-24T11:25:06;31.00;46.10
22716;DHT22;11525;51.152;4.456;2023-06-24T11:27:32;31.20;46.50
22716;DHT22;11525;51.152;4.456;2023-06-24T11:29:59;31.20;46.00
22716;DHT22;11525;51.152;4.456;2023-06-24T11:32:40;31.00;47.00
22716;DHT22;11525;51.152;4.456;2023-06-24T11:35:09;30.50;48.10
22716;DHT22;11525;51.152;4.456;2023-06-24T11:37:35;30.50;49.20
22716;DHT22;11525;51.152;4.456;2023-06-24T11:40:08;30.40;50.50
22716;DHT22;11525;51.152;4.456;2023-06-24T11:42:40;30.10;50.60
22716;DHT22;11525;51.152;4.456;2023-06-24T11:45:08;30.00;52.00
22716;DHT22;11525;51.152;4.456;2023-06-24T11:47:35;29.80;50.80
22716;DHT22;11525;51.152;4.456;2023-06-24T11:50:02;29.60;51.60
22716;DHT22;11525;51.152;4.456;2023-06-24T11:52:33;29.40;51.80
22716;DHT22;11525;51.152;4.456;2023-06-24T11:55:03;29.60;52.20
22716;DHT22;11525;51.152;4.456;2023-06-24T12:00:39;29.60;51.90
22716;DHT22;11525;51.152;4.456;2023-06-24T12:03:09;29.40;53.60
22716;DHT22;11525;51.152;4.456;2023-06-24T12:05:38;29.40;54.20
22716;DHT22;11525;51.152;4.456;2023-06-24T12:08:11;29.50;53.50
22716;DHT22;11525;51.152;4.456;2023-06-24T12:10:38;29.20;51.70
22716;DHT22;11525;51.152;4.456;2023-06-24T12:13:05;29.10;53.10
22716;DHT22;11525;51.152;4.456;2023-06-24T12:15:34;29.30;52.70
22716;DHT22;11525;51.152;4.456;2023-06-24T12:18:01;29.20;50.90
22716;DHT22;11525;51.152;4.456;2023-06-24T12:20:28;29.30;50.30
22716;DHT22;11525;51.152;4.456;2023-06-24T12:22:54;29.40;51.50
22716;DHT22;11525;51.152;4.456;2023-06-24T12:25:20;29.10;51.70
22716;DHT22;11525;51.152;4.456;2023-06-24T12:27:46;29.10;51.30
22716;DHT22;11525;51.152;4.456;2023-06-24T12:30:13;29.00;51.50
22716;DHT22;11525;51.152;4.456;2023-06-24T12:32:39;29.20;51.40
22716;DHT22;11525;51.152;4.456;2023-06-24T12:35:05;29.10;51.20
22716;DHT22;11525;51.152;4.456;2023-06-24T12:37:34;29.20;51.70
22716;DHT22;11525;51.152;4.456;2023-06-24T12:40:00;29.30;49.20
22716;DHT22;11525;51.152;4.456;2023-06-24T12:42:27;29.30;51.70
22716;DHT22;11525;51.152;4.456;2023-06-24T12:44:53;29.20;50.20
22716;DHT22;11525;51.152;4.456;2023-06-24T12:47:19;29.30;50.00
22716;DHT22;11525;51.152;4.456;2023-06-24T12:49:45;29.50;48.10
22716;DHT22;11525;51.152;4.456;2023-06-24T12:52:13;29.20;46.80
22716;DHT22;11525;51.152;4.456;2023-06-24T12:54:39;29.10;48.60
22716;DHT22;11525;51.152;4.456;2023-06-24T12:57:07;29.10;49.70
22716;DHT22;11525;51.152;4.456;2023-06-24T12:59:33;29.10;49.60
22716;DHT22;11525;51.152;4.456;2023-06-24T13:01:59;29.10;51.00
22716;DHT22;11525;51.152;4.456;2023-06-24T13:04:25;29.10;49.60
22716;DHT22;11525;51.152;4.456;2023-06-24T13:06:51;29.10;49.30
22716;DHT22;11525;51.152;4.456;2023-06-24T13:09:17;29.20;49.40
22716;DHT22;11525;51.152;4.456;2023-06-24T13:11:43;29.30;49.00
22716;DHT22;11525;51.152;4.456;2023-06-24T13:14:09;29.20;48.80
22716;DHT22;11525;51.152;4.456;2023-06-24T13:16:36;29.20;49.60
22716;DHT22;11525;51.152;4.456;2023-06-24T13:19:02;29.30;48.50
22716;DHT22;11525;51.152;4.456;2023-06-24T13:21:28;29.10;48.30
22716;DHT22;11525;51.152;4.456;2023-06-24T13:23:54;28.90;48.70
22716;DHT22;11525;51.152;4.456;2023-06-24T13:26:20;29.10;48.40
22716;DHT22;11525;51.152;4.456;2023-06-24T13:28:46;29.20;50.10
22716;DHT22;11525;51.152;4.456;2023-06-24T13:31:14;29.30;48.50
22716;DHT22;11525;51.152;4.456;2023-06-24T13:33:40;29.20;48.30
22716;DHT22;11525;51.152;4.456;2023-06-24T13:36:26;29.30;49.30
22716;DHT22;11525;51.152;4.456;2023-06-24T13:38:53;29.50;48.10
22716;DHT22;11525;51.152;4.456;2023-06-24T13:41:18;29.30;47.80
22716;DHT22;11525;51.152;4.456;2023-06-24T13:43:55;29.30;49.10
22716;DHT22;11525;51.152;4.456;2023-06-24T13:46:22;29.30;49.10
22716;DHT22;11525;51.152;4.456;2023-06-24T13:48:51;29.40;49.10
22716;DHT22;11525;51.152;4.456;2023-06-24T13:51:18;29.30;47.30
22716;DHT22;11525;51.152;4.456;2023-06-24T13:53:45;29.10;48.60
22716;DHT22;11525;51.152;4.456;2023-06-24T13:56:11;29.10;46.60
22716;DHT22;11525;51.152;4.456;2023-06-24T13:58:39;28.90;46.40
22716;DHT22;11525;51.152;4.456;2023-06-24T14:01:18;28.50;46.90
22716;DHT22;11525;51.152;4.456;2023-06-24T14:03:50;28.70;50.50
22716;DHT22;11525;51.152;4.456;2023-06-24T14:06:18;28.90;50.20
22716;DHT22;11525;51.152;4.456;2023-06-24T14:08:50;28.90;48.70
22716;DHT22;11525;51.152;4.456;2023-06-24T14:11:39;28.90;49.00
22716;DHT22;11525;51.152;4.456;2023-06-24T14:14:08;29.10;49.30
22716;DHT22;11525;51.152;4.456;2023-06-24T14:16:36;29.20;48.10
22716;DHT22;11525;51.152;4.456;2023-06-24T14:19:04;29.20;48.90
22716;DHT22;11525;51.152;4.456;2023-06-24T14:24:23;29.30;48.40
22716;DHT22;11525;51.152;4.456;2023-06-24T14:26:49;29.30;49.00
22716;DHT22;11525;51.152;4.456;2023-06-24T14:29:18;29.30;48.50
22716;DHT22;11525;51.152;4.456;2023-06-24T14:31:44;29.60;48.50
22716;DHT22;11525;51.152;4.456;2023-06-24T14:34:10;29.60;48.50
22716;DHT22;11525;51.152;4.456;2023-06-24T14:36:38;29.60;48.00
22716;DHT22;11525;51.152;4.456;2023-06-24T14:39:04;29.60;45.30
22716;DHT22;11525;51.152;4.456;2023-06-24T14:41:30;29.60;45.80
22716;DHT22;11525;51.152;4.456;2023-06-24T14:43:56;29.40;46.10
22716;DHT22;11525;51.152;4.456;2023-06-24T14:46:22;29.50;45.70
22716;DHT22;11525;51.152;4.456;2023-06-24T14:48:48;29.40;45.80
22716;DHT22;11525;51.152;4.456;2023-06-24T14:51:14;29.50;45.90
22716;DHT22;11525;51.152;4.456;2023-06-24T14:53:40;29.40;44.70
22716;DHT22;11525;51.152;4.456;2023-06-24T14:56:13;29.30;44.00
22716;DHT22;11525;51.152;4.456;2023-06-24T14:58:39;29.20;44.90
22716;DHT22;11525;51.152;4.456;2023-06-24T15:01:05;29.00;43.60
22716;DHT22;11525;51.152;4.456;2023-06-24T15:03:31;28.90;44.30
22716;DHT22;11525;51.152;4.456;2023-06-24T15:05:59;28.30;43.20
22716;DHT22;11525;51.152;4.456;2023-06-24T15:08:28;28.40;46.10
22716;DHT22;11525;51.152;4.456;2023-06-24T15:10:56;28.40;47.90
22716;DHT22;11525;51.152;4.456;2023-06-24T15:13:22;28.70;48.90
22716;DHT22;11525;51.152;4.456;2023-06-24T15:15:48;28.90;48.90
22716;DHT22;11525;51.152;4.456;2023-06-24T15:18:15;29.10;47.50
22716;DHT22;11525;51.152;4.456;2023-06-24T15:20:43;29.10;47.90
22716;DHT22;11525;51.152;4.456;2023-06-24T15:23:09;29.20;48.10
22716;DHT22;11525;51.152;4.456;2023-06-24T15:25:35;29.20;48.30
22716;DHT22;11525;51.152;4.456;2023-06-24T15:28:00;29.20;47.80
22716;DHT22;11525;51.152;4.456;2023-06-24T15:30:29;29.30;48.20
22716;DHT22;11525;51.152;4.456;2023-06-24T15:32:57;29.40;48.10
22716;DHT22;11525;51.152;4.456;2023-06-24T15:35:24;29.30;47.00
22716;DHT22;11525;51.152;4.456;2023-06-24T15:37:50;29.00;48.80
22716;DHT22;11525;51.152;4.456;2023-06-24T15:40:16;29.10;49.70
22716;DHT22;11525;51.152;4.456;2023-06-24T15:42:42;29.20;49.30
22716;DHT22;11525;51.152;4.456;2023-06-24T15:45:08;29.20;49.90
22716;DHT22;11525;51.152;4.456;2023-06-24T15:47:34;29.20;50.10
22716;DHT22;11525;51.152;4.456;2023-06-24T15:50:00;29.20;49.40
22716;DHT22;11525;51.152;4.456;2023-06-24T15:52:26;29.20;49.40
22716;DHT22;11525;51.152;4.456;2023-06-24T15:54:51;29.20;49.40
22716;DHT22;11525;51.152;4.456;2023-06-24T15:57:17;29.20;50.00
22716;DHT22;11525;51.152;4.456;2023-06-24T15:59:43;29.10;49.60
22716;DHT22;11525;51.152;4.456;2023-06-24T16:02:09;29.10;49.70